createdAt,value
2018-08-11T00:02:33.482Z,24.20
2018-08-11T00:05:14.511Z,24.20
2018-08-11T00:07:56.087Z,24.30
2018-08-11T00:10:36.838Z,24.30
2018-08-11T00:13:18.480Z,24.30
2018-08-11T00:16:00.381Z,24.30
2018-08-11T00:18:42.807Z,24.30
2018-08-11T00:21:23.694Z,24.30
2018-08-11T00:24:06.276Z,24.20
2018-08-11T00:29:54.286Z,24.20
2018-08-11T00:32:35.603Z,24.30
2018-08-11T00:35:17.455Z,24.30
2018-08-11T00:37:58.990Z,24.30
2018-08-11T00:40:40.701Z,24.30
2018-08-11T00:43:21.548Z,24.30
2018-08-11T00:46:03.791Z,24.30
2018-08-11T00:48:44.945Z,24.20
2018-08-11T00:51:26.142Z,24.30
2018-08-11T00:54:07.860Z,24.20
2018-08-11T00:56:49.744Z,24.20
2018-08-11T00:59:31.593Z,24.30
2018-08-11T01:02:13.832Z,24.20
2018-08-11T01:04:55.315Z,24.20
2018-08-11T01:07:36.345Z,24.20
2018-08-11T01:10:18.297Z,24.20
2018-08-11T01:12:59.808Z,24.20
2018-08-11T01:15:44.694Z,24.20
2018-08-11T01:18:27.386Z,24.10
2018-08-11T01:21:09.016Z,24.10
2018-08-11T01:23:50.398Z,24.10
2018-08-11T01:26:31.970Z,24.10
2018-08-11T01:29:13.096Z,24.10
2018-08-11T01:31:55.584Z,24.10
2018-08-11T01:34:36.428Z,24.00
2018-08-11T01:37:18.221Z,24.10
2018-08-11T01:40:12.922Z,24.10
2018-08-11T01:42:56.492Z,24.00
2018-08-11T01:45:38.339Z,24.00
2018-08-11T01:48:28.277Z,24.00
2018-08-11T01:51:18.158Z,24.00
2018-08-11T01:53:59.973Z,24.00
2018-08-11T01:56:41.611Z,23.90
2018-08-11T01:59:22.540Z,23.90
2018-08-11T02:02:04.267Z,23.90
2018-08-11T02:05:02.259Z,23.90
2018-08-11T02:10:50.656Z,23.80
2018-08-11T02:13:32.250Z,23.80
2018-08-11T02:16:13.919Z,23.80
2018-08-11T02:18:54.625Z,23.80
2018-08-11T02:21:36.310Z,23.80
2018-08-11T02:24:17.988Z,23.80
2018-08-11T02:30:06.778Z,23.70
2018-08-11T02:32:49.551Z,23.70
2018-08-11T02:35:31.252Z,23.70
2018-08-11T02:38:14.024Z,23.70
2018-08-11T02:40:59.493Z,23.70
2018-08-11T02:43:42.087Z,23.70
2018-08-11T02:46:23.701Z,23.70
2018-08-11T02:49:05.497Z,23.60
2018-08-11T02:51:46.283Z,23.60
2018-08-11T02:57:55.341Z,23.60
2018-08-11T03:00:52.869Z,23.60
2018-08-11T03:03:34.626Z,23.60
2018-08-11T03:06:16.253Z,23.60
2018-08-11T03:08:57.013Z,23.60
2018-08-11T03:11:38.765Z,23.60
2018-08-11T03:14:33.434Z,23.50
2018-08-11T03:17:24.178Z,23.60
2018-08-11T03:20:05.113Z,23.50
2018-08-11T03:22:46.103Z,23.50
2018-08-11T03:25:27.639Z,23.50
2018-08-11T03:28:09.432Z,23.60
2018-08-11T03:30:51.523Z,23.50
2018-08-11T03:33:33.717Z,23.50
2018-08-11T03:36:15.362Z,23.50
2018-08-11T03:39:10.151Z,23.50
2018-08-11T03:41:51.777Z,23.50
2018-08-11T03:44:33.351Z,23.50
2018-08-11T03:47:14.289Z,23.40
2018-08-11T03:49:55.059Z,23.40
2018-08-11T03:52:36.163Z,23.40
2018-08-11T03:55:26.073Z,23.40
2018-08-11T03:58:08.793Z,23.40
2018-08-11T04:03:58.011Z,23.30
2018-08-11T04:06:39.911Z,23.30
2018-08-11T04:09:33.485Z,23.30
2018-08-11T04:12:15.269Z,23.30
2018-08-11T04:15:17.972Z,23.30
2018-08-11T04:17:59.505Z,23.30
2018-08-11T04:20:41.677Z,23.30
2018-08-11T04:23:22.971Z,23.30
2018-08-11T04:26:04.610Z,23.40
2018-08-11T04:28:47.233Z,23.30
2018-08-11T04:31:28.774Z,23.30
2018-08-11T04:34:09.884Z,23.30
2018-08-11T04:36:51.382Z,23.30
2018-08-11T04:39:32.293Z,23.20
2018-08-11T04:42:14.242Z,23.20
2018-08-11T04:44:56.099Z,23.20
2018-08-11T04:47:37.750Z,23.30
2018-08-11T04:50:19.007Z,23.30
2018-08-11T04:52:59.850Z,23.30
2018-08-11T04:55:41.589Z,23.30
2018-08-11T04:58:22.519Z,23.20
2018-08-11T05:01:03.323Z,23.30
2018-08-11T05:03:44.035Z,23.30
2018-08-11T05:06:25.837Z,23.30
2018-08-11T05:09:06.817Z,23.30
2018-08-11T05:11:48.570Z,23.30
2018-08-11T05:14:29.384Z,23.30
2018-08-11T05:17:10.932Z,23.30
2018-08-11T05:19:52.119Z,23.40
2018-08-11T05:22:33.044Z,23.40
2018-08-11T05:25:13.950Z,23.40
2018-08-11T05:27:54.933Z,23.50
2018-08-11T05:30:35.701Z,23.50
2018-08-11T05:33:17.410Z,23.50
2018-08-11T05:35:59.141Z,23.60
2018-08-11T05:38:40.825Z,23.60
2018-08-11T05:41:22.441Z,23.60
2018-08-11T05:44:04.234Z,23.70
2018-08-11T05:46:47.114Z,23.70
2018-08-11T05:49:28.170Z,23.80
2018-08-11T05:52:09.851Z,23.80
2018-08-11T05:54:50.834Z,23.90
2018-08-11T05:57:31.947Z,23.90
2018-08-11T06:00:13.755Z,24.00
2018-08-11T06:02:55.384Z,24.00
2018-08-11T06:05:37.895Z,24.10
2018-08-11T06:08:19.521Z,24.20
2018-08-11T06:11:00.233Z,24.30
2018-08-11T06:13:41.966Z,24.30
2018-08-11T06:16:23.815Z,24.40
2018-08-11T06:19:05.545Z,24.50
2018-08-11T06:21:47.188Z,24.60
2018-08-11T06:24:29.358Z,24.70
2018-08-11T06:27:10.737Z,24.80
2018-08-11T06:29:52.352Z,24.90
2018-08-11T06:32:34.067Z,25.00
2018-08-11T06:35:15.612Z,25.10
2018-08-11T06:37:57.323Z,25.20
2018-08-11T06:40:38.993Z,25.30
2018-08-11T06:43:21.599Z,25.40
2018-08-11T06:46:03.873Z,25.50
2018-08-11T06:48:45.169Z,25.60
2018-08-11T06:51:27.957Z,25.70
2018-08-11T06:54:09.655Z,25.70
2018-08-11T06:56:51.800Z,25.80
2018-08-11T06:59:34.173Z,25.80
2018-08-11T07:02:15.534Z,25.90
2018-08-11T07:04:57.083Z,26.00
2018-08-11T07:07:38.807Z,26.00
2018-08-11T07:10:20.840Z,26.10
2018-08-11T07:13:02.250Z,26.10
2018-08-11T07:15:43.997Z,26.20
2018-08-11T07:18:25.684Z,26.20
2018-08-11T07:21:07.338Z,26.30
2018-08-11T07:23:48.845Z,26.40
2018-08-11T07:26:30.453Z,26.50
2018-08-11T07:29:11.366Z,26.30
2018-08-11T07:31:52.081Z,26.10
2018-08-11T07:34:33.717Z,26.30
2018-08-11T07:37:14.620Z,26.40
2018-08-11T07:39:55.409Z,26.50
2018-08-11T07:42:36.365Z,26.40
2018-08-11T07:45:17.365Z,26.50
2018-08-11T07:47:58.212Z,26.60
2018-08-11T07:50:38.988Z,26.80
2018-08-11T07:53:19.784Z,26.90
2018-08-11T07:56:01.583Z,26.90
2018-08-11T07:58:42.428Z,26.90
2018-08-11T08:01:24.064Z,26.90
2018-08-11T08:04:05.658Z,26.90
2018-08-11T08:06:47.281Z,27.10
2018-08-11T08:09:28.050Z,27.30
2018-08-11T08:12:09.627Z,27.40
2018-08-11T08:14:50.367Z,27.50
2018-08-11T08:17:32.068Z,27.40
2018-08-11T08:20:13.314Z,27.40
2018-08-11T08:22:54.484Z,27.30
2018-08-11T08:25:36.233Z,27.30
2018-08-11T08:28:18.387Z,27.30
2018-08-11T08:30:59.312Z,27.30
2018-08-11T08:33:40.886Z,27.30
2018-08-11T08:36:21.643Z,27.40
2018-08-11T08:39:02.472Z,27.40
2018-08-11T08:41:44.280Z,27.40
2018-08-11T08:44:25.073Z,27.50
2018-08-11T08:47:06.924Z,27.50
2018-08-11T08:49:47.654Z,27.70
2018-08-11T08:52:29.243Z,27.70
2018-08-11T08:55:10.871Z,27.90
2018-08-11T08:57:51.630Z,27.80
2018-08-11T09:00:33.187Z,28.00
2018-08-11T09:03:14.015Z,28.20
2018-08-11T09:05:55.714Z,28.50
2018-08-11T09:08:36.511Z,28.70
2018-08-11T09:11:18.169Z,28.60
2018-08-11T09:13:58.993Z,28.60
2018-08-11T09:16:40.538Z,28.60
2018-08-11T09:19:22.226Z,28.70
2018-08-11T09:22:03.002Z,28.60
2018-08-11T09:24:43.899Z,28.90
2018-08-11T09:27:25.545Z,29.00
2018-08-11T09:30:06.493Z,29.20
2018-08-11T09:32:48.220Z,29.10
2018-08-11T09:35:29.271Z,29.20
2018-08-11T09:38:10.850Z,29.40
2018-08-11T09:40:53.146Z,29.40
2018-08-11T09:43:34.170Z,29.50
2018-08-11T09:46:15.880Z,29.60
2018-08-11T09:48:56.699Z,29.90
2018-08-11T09:51:38.187Z,30.10
2018-08-11T09:54:19.675Z,30.40
2018-08-11T09:57:00.621Z,30.50
2018-08-11T09:59:41.815Z,30.70
2018-08-11T10:02:23.484Z,31.00
2018-08-11T10:05:04.861Z,31.20
2018-08-11T10:07:45.734Z,31.40
2018-08-11T10:10:27.792Z,31.70
2018-08-11T10:13:09.846Z,31.90
2018-08-11T10:15:51.166Z,31.80
2018-08-11T10:18:32.729Z,31.80
2018-08-11T10:21:14.303Z,31.70
2018-08-11T10:23:55.718Z,31.70
2018-08-11T10:26:37.926Z,31.60
2018-08-11T10:29:19.083Z,31.70
2018-08-11T10:32:00.307Z,31.80
2018-08-11T10:34:41.208Z,32.00
2018-08-11T10:37:22.775Z,31.90
2018-08-11T10:40:03.943Z,31.90
2018-08-11T10:42:45.508Z,31.80
2018-08-11T10:45:26.269Z,31.90
2018-08-11T10:48:07.406Z,31.90
2018-08-11T10:50:48.873Z,31.90
2018-08-11T10:53:30.626Z,31.60
2018-08-11T10:56:11.865Z,31.60
2018-08-11T10:58:53.008Z,31.60
2018-08-11T11:01:34.569Z,31.60
2018-08-11T11:04:15.224Z,31.30
2018-08-11T11:06:55.939Z,31.30
2018-08-11T11:09:37.561Z,31.10
2018-08-11T11:12:19.170Z,31.10
2018-08-11T11:14:59.810Z,31.00
2018-08-11T11:17:41.540Z,30.80
2018-08-11T11:20:23.237Z,30.70
2018-08-11T11:23:04.931Z,30.40
2018-08-11T11:25:46.600Z,30.30
2018-08-11T11:28:27.445Z,30.30
2018-08-11T11:31:09.177Z,30.40
2018-08-11T11:33:50.790Z,30.60
2018-08-11T11:36:32.376Z,30.80
2018-08-11T11:39:13.204Z,31.00
2018-08-11T11:41:54.848Z,31.00
2018-08-11T11:44:35.527Z,30.90
2018-08-11T11:47:17.117Z,31.00
2018-08-11T11:49:58.293Z,31.10
2018-08-11T11:52:39.093Z,31.20
2018-08-11T11:55:20.787Z,30.80
2018-08-11T11:58:02.366Z,30.70
2018-08-11T12:00:44.043Z,30.50
2018-08-11T12:03:25.733Z,30.40
2018-08-11T12:06:06.515Z,30.30
2018-08-11T12:08:48.089Z,30.20
2018-08-11T12:11:29.803Z,30.10
2018-08-11T12:14:10.667Z,29.90
2018-08-11T12:16:51.434Z,29.90
2018-08-11T12:19:32.524Z,29.90
2018-08-11T12:22:14.079Z,29.80
2018-08-11T12:24:54.798Z,29.80
2018-08-11T12:27:36.489Z,29.80
2018-08-11T12:30:18.198Z,29.60
2018-08-11T12:32:59.886Z,29.60
2018-08-11T12:35:40.636Z,29.70
2018-08-11T12:38:21.377Z,29.80
2018-08-11T12:41:01.998Z,29.80
2018-08-11T12:43:43.758Z,30.00
2018-08-11T12:46:25.353Z,30.10
2018-08-11T12:49:07.346Z,30.10
2018-08-11T12:51:48.546Z,30.30
2018-08-11T12:54:30.631Z,30.40
2018-08-11T12:57:12.014Z,30.50
2018-08-11T12:59:53.726Z,30.40
2018-08-11T13:02:35.326Z,30.50
2018-08-11T13:05:17.000Z,30.60
2018-08-11T13:07:57.790Z,30.90
2018-08-11T13:10:39.451Z,31.10
2018-08-11T13:13:21.247Z,31.10
2018-08-11T13:16:03.007Z,30.90
2018-08-11T13:18:43.839Z,30.60
2018-08-11T13:21:25.444Z,30.70
2018-08-11T13:24:07.090Z,30.80
2018-08-11T13:26:48.631Z,30.90
2018-08-11T13:29:29.551Z,30.90
2018-08-11T13:32:11.425Z,30.90
2018-08-11T13:34:53.141Z,31.00
2018-08-11T13:37:34.299Z,31.00
2018-08-11T13:40:16.373Z,31.00
2018-08-11T13:42:57.465Z,31.00
2018-08-11T13:45:38.487Z,30.80
2018-08-11T13:48:20.045Z,30.60
2018-08-11T13:51:01.569Z,30.60
2018-08-11T13:53:42.346Z,30.60
2018-08-11T13:56:23.937Z,30.70
2018-08-11T13:59:04.745Z,30.90
2018-08-11T14:01:45.693Z,30.80
2018-08-11T14:04:27.332Z,30.90
2018-08-11T14:07:08.967Z,31.00
2018-08-11T14:09:50.939Z,31.20
2018-08-11T14:12:32.391Z,31.40
2018-08-11T14:15:14.566Z,31.60
2018-08-11T14:17:55.895Z,31.70
2018-08-11T14:20:36.541Z,31.70
2018-08-11T14:23:18.194Z,31.70
2018-08-11T14:26:01.298Z,31.60
2018-08-11T14:28:42.062Z,31.50
2018-08-11T14:31:25.813Z,31.50
2018-08-11T14:34:06.440Z,31.50
2018-08-11T14:36:48.232Z,31.40
2018-08-11T14:39:29.878Z,31.50
2018-08-11T14:42:12.128Z,31.50
2018-08-11T14:44:53.315Z,31.40
2018-08-11T14:47:34.826Z,31.50
2018-08-11T14:50:16.512Z,31.50
2018-08-11T14:52:58.230Z,31.40
2018-08-11T14:55:39.861Z,31.30
2018-08-11T14:58:21.564Z,31.30
2018-08-11T15:01:03.073Z,31.30
2018-08-11T15:03:44.014Z,31.40
2018-08-11T15:06:25.956Z,31.40
2018-08-11T15:09:07.443Z,31.40
2018-08-11T15:11:48.271Z,31.50
2018-08-11T15:14:28.976Z,31.50
2018-08-11T15:23:32.460Z,31.30
2018-08-11T15:26:14.437Z,31.10
2018-08-11T15:32:04.612Z,30.80
2018-08-11T15:38:12.305Z,30.30
2018-08-11T15:40:54.113Z,30.10
2018-08-11T15:43:35.660Z,30.00
2018-08-11T15:46:16.417Z,29.80
2018-08-11T15:48:57.222Z,29.70
2018-08-11T15:51:39.035Z,29.60
2018-08-11T15:54:21.542Z,29.50
2018-08-11T15:57:03.199Z,29.50
2018-08-11T15:59:44.082Z,29.60
2018-08-11T16:02:29.773Z,29.70
2018-08-11T16:05:11.254Z,29.80
2018-08-11T16:07:52.209Z,29.80
2018-08-11T16:10:33.629Z,29.80
2018-08-11T16:13:15.180Z,29.70
2018-08-11T16:19:03.127Z,29.40
2018-08-11T16:21:44.585Z,29.10
2018-08-11T16:24:25.284Z,29.00
2018-08-11T16:27:06.857Z,28.90
2018-08-11T16:29:47.416Z,28.80
2018-08-11T16:32:28.293Z,28.70
2018-08-11T16:35:09.438Z,28.70
2018-08-11T16:37:50.854Z,28.50
2018-08-11T16:40:31.736Z,28.30
2018-08-11T16:43:14.140Z,28.10
2018-08-11T16:45:55.299Z,28.00
2018-08-11T16:48:37.101Z,27.80
2018-08-11T16:51:18.599Z,27.80
2018-08-11T16:54:00.055Z,27.80
2018-08-11T16:56:41.343Z,27.80
2018-08-11T16:59:23.179Z,27.70
2018-08-11T17:02:04.827Z,27.60
2018-08-11T17:04:45.768Z,27.60
2018-08-11T17:07:27.354Z,27.50
2018-08-11T17:10:10.056Z,27.50
2018-08-11T17:12:51.017Z,27.50
2018-08-11T17:15:32.053Z,27.50
2018-08-11T17:18:13.904Z,27.40
2018-08-11T17:20:55.270Z,27.40
2018-08-11T17:23:37.102Z,27.30
2018-08-11T17:26:18.700Z,27.30
2018-08-11T17:28:59.775Z,27.30
2018-08-11T17:31:41.425Z,27.30
2018-08-11T17:34:22.221Z,27.30
2018-08-11T17:37:03.876Z,27.40
2018-08-11T17:39:45.318Z,27.40
2018-08-11T17:42:33.942Z,27.50
2018-08-11T17:45:15.670Z,27.50
2018-08-11T17:47:56.568Z,27.50
2018-08-11T17:50:37.467Z,27.50
2018-08-11T17:53:18.219Z,27.60
2018-08-11T17:56:00.285Z,27.60
2018-08-11T17:58:41.897Z,27.60
2018-08-11T18:01:23.198Z,27.50
2018-08-11T18:04:05.102Z,27.40
2018-08-11T18:06:46.708Z,27.40
2018-08-11T18:09:28.251Z,27.40
2018-08-11T18:12:09.202Z,27.30
2018-08-11T18:14:50.144Z,27.30
2018-08-11T18:17:31.882Z,27.20
2018-08-11T18:20:13.918Z,27.00
2018-08-11T18:22:55.473Z,26.90
2018-08-11T18:25:36.624Z,26.90
2018-08-11T18:28:18.396Z,26.90
2018-08-11T18:31:00.632Z,26.90
2018-08-11T18:33:42.427Z,26.90
2018-08-11T18:36:24.400Z,26.80
2018-08-11T18:39:26.456Z,26.80
2018-08-11T18:42:07.832Z,26.90
2018-08-11T18:44:48.575Z,26.80
2018-08-11T18:47:29.508Z,26.90
2018-08-11T18:50:11.389Z,26.90
2018-08-11T18:52:52.988Z,26.80
2018-08-11T18:55:34.928Z,26.80
2018-08-11T18:58:16.522Z,26.80
2018-08-11T19:01:06.360Z,26.80
2018-08-11T19:04:00.920Z,26.80
2018-08-11T19:06:42.759Z,26.80
2018-08-11T19:09:23.508Z,26.80
2018-08-11T19:12:05.168Z,26.80
2018-08-11T19:14:46.181Z,26.80
2018-08-11T19:17:27.915Z,26.80
2018-08-11T19:20:09.715Z,26.80
2018-08-11T19:22:50.380Z,26.80
2018-08-11T19:25:32.315Z,26.80
2018-08-11T19:28:13.754Z,26.70
2018-08-11T19:30:55.378Z,26.70
2018-08-11T19:33:38.347Z,26.60
2018-08-11T19:36:20.261Z,26.60
2018-08-11T19:39:01.968Z,26.70
2018-08-11T19:41:43.882Z,26.70
2018-08-11T19:44:24.995Z,26.70
2018-08-11T19:47:05.763Z,26.70
2018-08-11T19:49:47.500Z,26.70
2018-08-11T19:52:34.359Z,26.80
2018-08-11T19:55:16.093Z,26.80
2018-08-11T19:57:57.791Z,26.80
2018-08-11T20:00:40.372Z,26.80
2018-08-11T20:03:29.281Z,26.80
2018-08-11T20:06:11.896Z,26.80
2018-08-11T20:09:00.688Z,26.70
2018-08-11T20:11:41.861Z,26.70
2018-08-11T20:14:22.663Z,26.70
2018-08-11T20:17:03.616Z,26.70
2018-08-11T20:23:09.077Z,26.60
2018-08-11T20:25:51.012Z,26.60
2018-08-11T20:28:32.628Z,26.60
2018-08-11T20:31:14.252Z,26.60
2018-08-11T20:33:55.808Z,26.60
2018-08-11T20:36:36.706Z,26.50
2018-08-11T20:39:19.574Z,26.50
2018-08-11T20:42:01.256Z,26.50
2018-08-11T20:44:42.976Z,26.50
2018-08-11T20:47:23.897Z,26.50
2018-08-11T20:50:06.442Z,26.50
2018-08-11T20:52:48.098Z,26.50
2018-08-11T20:55:28.872Z,26.40
2018-08-11T20:58:10.839Z,26.40
2018-08-11T21:00:52.647Z,26.50
2018-08-11T21:03:33.445Z,26.40
2018-08-11T21:06:15.077Z,26.40
2018-08-11T21:08:56.024Z,26.40
2018-08-11T21:11:37.549Z,26.40
2018-08-11T21:14:18.512Z,26.40
2018-08-11T21:17:00.280Z,26.40
2018-08-11T21:19:41.728Z,26.40
2018-08-11T21:22:23.422Z,26.40
2018-08-11T21:25:05.298Z,26.50
2018-08-11T21:27:47.122Z,26.50
2018-08-11T21:30:28.642Z,26.50
2018-08-11T21:33:10.249Z,26.50
2018-08-11T21:35:52.113Z,26.50
2018-08-11T21:38:34.450Z,26.40
2018-08-11T21:41:15.144Z,26.40
2018-08-11T21:43:56.835Z,26.40
2018-08-11T21:46:40.291Z,26.40
2018-08-11T21:49:21.052Z,26.40
2018-08-11T21:52:03.295Z,26.40
2018-08-11T21:54:46.722Z,26.40
2018-08-11T21:57:27.972Z,26.40
2018-08-11T22:00:09.580Z,26.40
2018-08-11T22:02:51.767Z,26.40
2018-08-11T22:05:33.426Z,26.30
2018-08-11T22:08:15.343Z,26.30
2018-08-11T22:10:58.202Z,26.30
2018-08-11T22:13:39.906Z,26.20
2018-08-11T22:16:22.480Z,26.20
2018-08-11T22:19:03.646Z,26.20
2018-08-11T22:21:45.320Z,26.20
2018-08-11T22:24:26.643Z,26.20
2018-08-11T22:27:07.427Z,26.10
2018-08-11T22:29:49.256Z,26.10
2018-08-11T22:32:31.076Z,26.10
2018-08-11T22:41:33.184Z,26.00
2018-08-11T22:44:14.248Z,26.00
2018-08-11T22:46:55.994Z,26.00
2018-08-11T22:49:37.649Z,26.00
2018-08-11T22:52:19.421Z,25.90
2018-08-11T22:55:01.177Z,25.90
2018-08-11T22:57:42.818Z,25.90
2018-08-11T23:00:24.551Z,25.90
2018-08-11T23:03:05.443Z,25.90
2018-08-11T23:05:46.516Z,25.90
2018-08-11T23:08:27.519Z,25.80
2018-08-11T23:11:09.093Z,25.90
2018-08-11T23:13:49.910Z,25.90
2018-08-11T23:16:31.059Z,25.90
2018-08-11T23:19:13.399Z,25.80
2018-08-11T23:21:54.790Z,25.80
2018-08-11T23:24:36.663Z,25.80
2018-08-11T23:27:18.347Z,25.80
2018-08-11T23:29:59.946Z,25.80
2018-08-11T23:35:52.517Z,25.80
2018-08-11T23:38:34.257Z,25.80
2018-08-11T23:41:15.202Z,25.80
2018-08-11T23:43:56.914Z,25.80
2018-08-11T23:46:38.612Z,25.80
2018-08-11T23:49:20.312Z,25.70
2018-08-11T23:52:02.197Z,25.70
2018-08-11T23:54:43.809Z,25.70
2018-08-11T23:57:25.472Z,25.70
